Time;durP1;ratioP1;P1;durP2;ratioP2;P2;SDS_P1;SDS_P2;PMS_P1;PMS_P2;Temp;Humidity;BMP_temperature;BMP_pressure;BME280_temperature;BME280_humidity;BME280_pressure;Samples;Min_cycle;Max_cycle;Signal;HPM_P1;HPM_P2
2023/10/14 00:01:12;;;;;;;7.47;3.73;;;;;;;20.96;58.25;99552.53;5051957;28;20433;-58
2023/10/14 00:03:41;;;;;;;6.30;3.67;;;;;;;20.96;58.62;99555.41;5055335;28;20936;-58
2023/10/14 00:06:07;;;;;;;9.87;3.83;;;;;;;20.95;58.48;99557.47;5054140;28;20441;-58
2023/10/14 00:08:33;;;;;;;5.37;3.27;;;;;;;20.95;58.19;99557.47;5059390;28;20438;-58
2023/10/14 00:11:04;;;;;;;5.10;3.63;;;;;;;20.96;58.58;99558.25;5052612;28;20178;-58
2023/10/14 00:13:41;;;;;;;7.23;3.87;;;;;;;20.96;58.29;99564.84;5060592;28;20790;-58
2023/10/14 00:18:49;;;;;;;10.00;4.40;;;;;;;20.96;58.32;99555.41;5063470;28;20441;-58
2023/10/14 00:21:14;;;;;;;12.20;4.37;;;;;;;20.96;58.01;99552.53;5060546;28;20514;-58
2023/10/14 00:23:40;;;;;;;8.07;4.20;;;;;;;20.96;58.98;99558.25;5062281;28;20430;-58
2023/10/14 00:26:16;;;;;;;8.50;4.07;;;;;;;20.94;58.96;99561.56;5066327;28;20195;-58
2023/10/14 00:28:45;;;;;;;9.70;4.00;;;;;;;20.95;58.90;99556.63;5068738;28;20190;-58
2023/10/14 00:31:12;;;;;;;8.70;4.47;;;;;;;20.96;58.91;99552.53;5056167;28;20455;-58
2023/10/14 00:33:38;;;;;;;11.60;4.77;;;;;;;20.95;58.95;99548.03;5063466;28;20437;-58
2023/10/14 00:36:10;;;;;;;7.43;5.20;;;;;;;20.95;59.29;99557.47;5059572;28;21124;-58
2023/10/14 00:38:37;;;;;;;7.23;3.83;;;;;;;20.94;59.60;99555.84;5065324;28;20179;-58
2023/10/14 00:41:03;;;;;;;9.80;4.90;;;;;;;20.94;60.03;99560.75;5071340;28;21004;-58
2023/10/14 00:43:28;;;;;;;11.50;4.37;;;;;;;20.94;60.06;99550.09;5060016;28;20501;-58
2023/10/14 00:45:53;;;;;;;9.57;4.73;;;;;;;20.93;59.91;99548.44;5058336;28;20287;-58
2023/10/14 00:48:27;;;;;;;8.63;4.40;;;;;;;20.95;60.08;99557.47;5050312;28;20246;-58
2023/10/14 00:50:57;;;;;;;7.17;4.83;;;;;;;20.97;60.17;99546.38;5056921;28;20304;-58
2023/10/14 00:53:23;;;;;;;10.57;4.43;;;;;;;20.96;60.18;99544.75;5065752;28;20433;-58
2023/10/14 00:55:54;;;;;;;11.50;5.20;;;;;;;20.97;60.86;99548.44;5064633;28;21333;-58
2023/10/14 00:58:28;;;;;;;8.40;4.87;;;;;;;20.97;60.36;99542.72;5069153;28;20911;-58
2023/10/14 01:00:59;;;;;;;15.07;5.40;;;;;;;20.98;60.99;99545.13;5066420;28;20473;-58
2023/10/14 01:03:37;;;;;;;11.00;5.57;;;;;;;20.97;60.90;99540.63;5050869;28;20512;-57
2023/10/14 01:06:22;;;;;;;12.00;5.27;;;;;;;20.99;61.26;99541.06;5057467;28;20433;-58
2023/10/14 01:08:49;;;;;;;10.40;4.80;;;;;;;20.99;61.72;99543.94;5053655;28;20434;-58
2023/10/14 01:11:17;;;;;;;8.40;5.47;;;;;;;20.98;61.27;99530.78;5057754;28;20491;-58
2023/10/14 01:13:44;;;;;;;8.87;6.40;;;;;;;20.98;61.77;99532.88;5070237;28;20432;-58
2023/10/14 01:16:10;;;;;;;8.30;5.20;;;;;;;20.99;61.80;99543.09;5070001;28;20460;-58
2023/10/14 01:18:39;;;;;;;19.73;6.33;;;;;;;21.00;61.89;99533.25;5058368;28;20437;-58
2023/10/14 01:21:06;;;;;;;12.90;6.20;;;;;;;21.00;62.26;99539.00;5050894;28;20184;-58
2023/10/14 01:23:37;;;;;;;13.53;6.30;;;;;;;21.00;61.82;99539.81;5061546;28;20452;-58
2023/10/14 01:26:09;;;;;;;10.20;6.00;;;;;;;20.99;61.99;99534.50;5066237;28;20445;-58
2023/10/14 01:28:42;;;;;;;10.23;6.33;;;;;;;21.00;62.39;99536.13;5057001;28;20438;-58
2023/10/14 01:31:46;;;;;;;17.27;6.60;;;;;;;21.00;62.50;99528.34;5055394;28;20437;-58
2023/10/14 01:34:28;;;;;;;14.50;6.13;;;;;;;20.99;62.58;99518.09;5018508;28;20953;-58
2023/10/14 01:36:55;;;;;;;13.63;6.00;;;;;;;21.01;62.77;99520.53;5067359;28;20448;-58
2023/10/14 01:39:25;;;;;;;10.70;6.30;;;;;;;21.00;62.72;99519.72;5070181;28;20413;-57
2023/10/14 01:41:53;;;;;;;15.53;6.57;;;;;;;21.00;62.91;99510.28;5069122;28;20437;-58
2023/10/14 01:44:21;;;;;;;13.33;6.93;;;;;;;20.99;62.62;99511.53;5055273;28;20475;-58
2023/10/14 01:46:47;;;;;;;13.30;6.10;;;;;;;21.01;62.93;99509.06;5050377;28;20429;-58
2023/10/14 01:49:19;;;;;;;12.83;6.17;;;;;;;21.00;63.21;99514.00;5050447;28;20433;-59
2023/10/14 01:51:49;;;;;;;17.10;6.50;;;;;;;20.99;63.15;99512.38;5056157;28;20437;-58
2023/10/14 01:54:15;;;;;;;10.07;6.03;;;;;;;20.99;63.63;99509.50;5052297;28;20468;-58
2023/10/14 01:56:42;;;;;;;11.30;7.10;;;;;;;20.99;63.78;99505.78;5054039;28;20427;-58
2023/10/14 01:59:07;;;;;;;12.07;6.27;;;;;;;21.00;63.73;99504.56;5051258;28;20434;-58
2023/10/14 02:01:36;;;;;;;11.10;6.00;;;;;;;20.99;63.50;99503.75;5062795;28;20999;-58
2023/10/14 02:04:02;;;;;;;9.43;5.80;;;;;;;20.99;63.75;99495.16;5052207;28;20183;-58
2023/10/14 02:06:30;;;;;;;15.77;6.80;;;;;;;21.00;63.49;99488.16;5063728;28;20448;-58
2023/10/14 02:08:58;;;;;;;12.90;6.30;;;;;;;20.99;63.94;99500.88;5051926;28;20508;-58
2023/10/14 02:11:33;;;;;;;12.67;6.67;;;;;;;21.00;63.78;99473.81;5048889;28;21028;-58
2023/10/14 02:13:58;;;;;;;18.60;6.47;;;;;;;21.00;63.99;99485.28;5049382;28;20494;-58
2023/10/14 02:16:25;;;;;;;12.10;6.87;;;;;;;21.01;63.62;99486.91;5056580;28;20450;-58
2023/10/14 02:18:51;;;;;;;17.03;7.30;;;;;;;21.00;63.69;99491.03;5053033;28;20703;-58
2023/10/14 02:21:17;;;;;;;13.43;6.70;;;;;;;21.00;64.05;99490.19;5054681;28;20923;-58
2023/10/14 02:23:49;;;;;;;11.10;6.43;;;;;;;21.00;64.04;99482.41;5048499;28;20446;-58
2023/10/14 02:26:28;;;;;;;14.30;6.13;;;;;;;21.00;63.91;99473.81;5050064;28;20444;-58
2023/10/14 02:28:54;;;;;;;10.30;5.90;;;;;;;21.00;63.88;99482.41;5052661;28;20440;-58
2023/10/14 02:33:52;;;;;;;13.40;6.40;;;;;;;20.99;64.38;99477.09;5049264;28;20427;-58
2023/10/14 02:36:18;;;;;;;13.43;6.80;;;;;;;20.99;64.17;99475.06;5054637;28;20903;-58
2023/10/14 02:38:48;;;;;;;8.70;6.10;;;;;;;20.99;64.44;99475.06;5060878;28;20681;-59
2023/10/14 02:41:17;;;;;;;11.47;6.40;;;;;;;20.98;63.95;99476.25;5049420;28;20226;-58
2023/10/14 02:43:48;;;;;;;11.53;6.23;;;;;;;20.99;64.37;99475.06;5049403;28;20433;-58
2023/10/14 02:46:19;;;;;;;14.93;6.03;;;;;;;21.00;64.23;99464.38;5061860;28;20256;-58
2023/10/14 02:48:54;;;;;;;12.87;6.03;;;;;;;21.00;64.36;99470.13;5068570;28;20436;-58
2023/10/14 02:51:35;;;;;;;12.63;6.20;;;;;;;20.99;64.09;99471.34;5060389;28;20878;-58
2023/10/14 02:54:05;;;;;;;9.80;6.63;;;;;;;21.00;64.13;99478.72;5060367;28;20442;-58
2023/10/14 02:56:43;;;;;;;15.17;6.60;;;;;;;20.99;64.32;99471.34;5065857;28;20437;-57
2023/10/14 02:59:14;;;;;;;15.00;6.73;;;;;;;21.00;64.85;99490.19;5060893;28;20444;-58
2023/10/14 03:01:40;;;;;;;16.57;6.87;;;;;;;20.99;64.05;99492.28;5066627;28;20956;-58
2023/10/14 03:04:07;;;;;;;11.23;6.33;;;;;;;21.00;64.32;99496.78;5050922;28;20515;-58
2023/10/14 03:06:46;;;;;;;14.57;7.20;;;;;;;20.99;64.49;99505.78;5052263;28;20477;-58
2023/10/14 03:09:17;;;;;;;14.10;6.50;;;;;;;21.00;63.99;99525.47;5064654;28;20444;-58
2023/10/14 03:11:43;;;;;;;12.07;6.70;;;;;;;21.03;64.25;99609.91;5069016;28;20424;-58
2023/10/14 03:14:09;;;;;;;14.57;6.47;;;;;;;21.04;64.23;99629.59;5056736;28;20561;-58
2023/10/14 03:16:35;;;;;;;22.20;6.67;;;;;;;20.99;64.14;99598.47;5056308;28;20438;-58
2023/10/14 03:19:02;;;;;;;16.60;6.50;;;;;;;20.97;63.76;99595.16;5053868;28;20586;-58
2023/10/14 03:21:28;;;;;;;12.37;6.20;;;;;;;20.95;64.00;99600.50;5052598;28;20463;-58
2023/10/14 03:23:56;;;;;;;13.87;6.23;;;;;;;20.94;64.72;99587.41;5052858;28;20879;-57
2023/10/14 03:26:27;;;;;;;10.70;5.40;;;;;;;20.92;64.56;99583.31;5060154;28;20436;-58
2023/10/14 03:28:52;;;;;;;12.73;6.30;;;;;;;20.90;64.97;99586.59;5062267;28;20461;-58
2023/10/14 03:31:19;;;;;;;12.40;5.07;;;;;;;20.88;65.27;99577.53;5048835;28;20484;-58
2023/10/14 03:33:45;;;;;;;8.17;4.40;;;;;;;20.87;65.65;99573.03;5050538;28;20191;-58
2023/10/14 03:36:17;;;;;;;9.80;3.67;;;;;;;20.87;65.65;99589.44;5063709;28;20466;-58
2023/10/14 03:38:54;;;;;;;10.10;5.20;;;;;;;20.87;65.68;99584.50;5057673;28;20290;-58
2023/10/14 03:41:21;;;;;;;11.40;4.20;;;;;;;20.87;65.51;99583.69;5051271;28;20425;-58
2023/10/14 03:46:35;;;;;;;9.37;3.97;;;;;;;20.86;65.78;99611.56;5058665;28;20457;-58
2023/10/14 03:51:52;;;;;;;9.13;4.67;;;;;;;20.87;66.04;99621.00;5050740;28;20417;-58
2023/10/14 03:54:23;;;;;;;9.83;4.30;;;;;;;20.87;66.31;99624.66;5057883;28;20445;-58
2023/10/14 03:56:50;;;;;;;10.00;4.00;;;;;;;20.86;66.53;99616.47;5051443;28;20430;-58
2023/10/14 03:59:26;;;;;;;9.17;4.07;;;;;;;20.86;66.45;99622.22;5051468;28;20432;-58
2023/10/14 04:01:58;;;;;;;7.87;3.63;;;;;;;20.86;66.50;99633.69;5054037;28;20925;-57
2023/10/14 04:04:27;;;;;;;8.10;4.10;;;;;;;20.86;66.63;99625.09;5061456;28;20967;-58
2023/10/14 04:09:36;;;;;;;9.50;3.70;;;;;;;20.86;66.11;99639.44;5059090;28;20449;-59
2023/10/14 04:12:07;;;;;;;8.83;4.00;;;;;;;20.86;66.70;99639.44;5054696;28;20866;-58
2023/10/14 04:14:35;;;;;;;9.80;4.10;;;;;;;20.85;66.19;99632.88;5065128;28;20518;-58
2023/10/14 04:22:39;;;;;;;7.00;3.80;;;;;;;20.85;66.79;99632.88;5063452;28;20544;-58
2023/10/14 04:30:32;;;;;;;6.60;3.77;;;;;;;20.85;66.33;99621.41;5069808;28;20437;-58
2023/10/14 04:35:26;;;;;;;7.13;3.53;;;;;;;20.84;66.21;99637.00;5051539;28;20458;-57
2023/10/14 04:37:52;;;;;;;7.20;3.77;;;;;;;20.84;66.58;99648.47;5059665;28;20445;-57
2023/10/14 04:46:13;;;;;;;9.70;4.57;;;;;;;20.83;66.55;99649.69;5051638;28;20438;-57
2023/10/14 04:48:39;;;;;;;11.27;4.10;;;;;;;20.84;66.62;99650.50;5062157;28;20429;-58
2023/10/14 04:51:15;;;;;;;6.50;3.20;;;;;;;20.83;66.66;99646.00;5063700;28;20446;-58
2023/10/14 04:53:43;;;;;;;9.30;4.43;;;;;;;20.83;66.60;99658.28;5050229;28;20187;-58
2023/10/14 04:56:09;;;;;;;7.87;4.20;;;;;;;20.81;66.24;99660.75;5062369;28;20592;-58
2023/10/14 04:58:40;;;;;;;7.43;3.50;;;;;;;20.82;66.34;99662.41;5050529;28;20521;-58
2023/10/14 05:01:17;;;;;;;6.07;3.63;;;;;;;20.81;65.94;99662.78;5054766;28;20595;-58
2023/10/14 05:03:43;;;;;;;9.63;4.47;;;;;;;20.81;65.97;99663.63;5062870;28;20574;-58
2023/10/14 05:08:44;;;;;;;8.07;3.80;;;;;;;20.81;65.75;99683.72;5066516;28;20186;-58
2023/10/14 05:11:12;;;;;;;9.07;3.87;;;;;;;20.81;65.78;99686.59;5052865;28;20455;-58
2023/10/14 05:13:39;;;;;;;9.37;3.87;;;;;;;20.80;65.83;99682.09;5070041;28;20445;-58
2023/10/14 05:16:21;;;;;;;6.30;3.77;;;;;;;20.80;66.20;99682.09;5061821;28;20442;-58
2023/10/14 05:19:07;;;;;;;8.00;3.83;;;;;;;20.80;65.96;99682.09;5058742;28;20482;-57
2023/10/14 05:21:35;;;;;;;8.23;4.00;;;;;;;20.81;66.07;99698.06;5053646;28;20442;-58
2023/10/14 05:24:10;;;;;;;10.50;4.20;;;;;;;20.80;65.73;99687.81;5057024;28;20456;-58
2023/10/14 05:26:51;;;;;;;8.80;3.70;;;;;;;20.80;65.47;99696.44;5054645;28;20998;-57
2023/10/14 05:29:18;;;;;;;6.87;3.20;;;;;;;20.80;65.54;99695.59;5051575;28;20472;-58
2023/10/14 05:31:44;;;;;;;7.77;3.07;;;;;;;20.79;65.29;99699.69;5060483;28;20503;-58
2023/10/14 05:34:09;;;;;;;14.63;3.60;;;;;;;20.79;65.56;99694.78;5050275;28;20190;-58
2023/10/14 05:36:36;;;;;;;7.50;3.43;;;;;;;20.79;65.53;99699.69;5051039;28;20917;-57
2023/10/14 05:39:02;;;;;;;8.27;2.93;;;;;;;20.79;65.16;99700.53;5061989;28;20190;-58
2023/10/14 05:41:28;;;;;;;14.37;3.83;;;;;;;20.79;65.57;99694.78;5069302;28;20424;-58
2023/10/14 05:43:54;;;;;;;9.93;3.40;;;;;;;20.78;65.29;99698.88;5057891;28;20948;-58
2023/10/14 05:46:20;;;;;;;6.10;2.73;;;;;;;20.79;65.60;99696.84;5049237;28;20434;-58
2023/10/14 05:48:46;;;;;;;7.37;3.53;;;;;;;20.79;65.29;99696.84;5057432;28;20237;-58
2023/10/14 05:51:11;;;;;;;7.43;3.03;;;;;;;20.78;65.06;99700.94;5061671;28;20891;-58
2023/10/14 05:53:37;;;;;;;6.77;3.00;;;;;;;20.77;65.21;99700.09;5053107;28;20187;-58
2023/10/14 05:56:15;;;;;;;6.50;2.73;;;;;;;20.77;65.42;99700.09;5056007;28;20219;-57
2023/10/14 05:58:41;;;;;;;4.30;2.87;;;;;;;20.78;65.35;99703.81;5050616;28;20214;-57
2023/10/14 06:01:10;;;;;;;5.87;2.07;;;;;;;20.77;65.33;99710.78;5048074;28;20423;-58
2023/10/14 06:03:40;;;;;;;5.67;2.70;;;;;;;20.77;65.71;99717.31;5059550;28;20543;-58
2023/10/14 06:06:14;;;;;;;7.00;2.90;;;;;;;20.77;65.63;99717.31;5049134;28;20448;-58
2023/10/14 06:08:40;;;;;;;5.47;2.60;;;;;;;20.77;65.41;99716.50;5060196;28;20515;-58
2023/10/14 06:11:06;;;;;;;5.50;2.50;;;;;;;20.80;65.98;99724.28;5052565;28;20426;-58
2023/10/14 06:13:34;;;;;;;6.63;2.90;;;;;;;20.79;65.44;99732.09;5051000;28;20191;-58
2023/10/14 06:16:00;;;;;;;6.97;2.23;;;;;;;20.77;65.60;99728.00;5055850;28;20241;-58
2023/10/14 06:18:29;;;;;;;7.90;1.83;;;;;;;20.74;65.24;99734.53;5066400;28;20449;-58
2023/10/14 06:20:55;;;;;;;5.77;2.17;;;;;;;20.73;65.43;99716.50;5066742;28;20515;-58
2023/10/14 06:23:20;;;;;;;6.90;2.23;;;;;;;20.73;65.09;99730.03;5054632;28;20434;-58
2023/10/14 06:25:46;;;;;;;4.00;1.90;;;;;;;20.72;65.27;99725.53;5056305;28;20434;-58
2023/10/14 06:28:11;;;;;;;4.40;2.00;;;;;;;20.69;65.04;99732.91;5048212;28;20671;-58
2023/10/14 06:30:37;;;;;;;3.10;1.47;;;;;;;20.71;65.11;99726.75;5050941;28;20253;-57
2023/10/14 06:33:05;;;;;;;4.63;2.10;;;;;;;20.69;65.14;99727.16;5048658;28;20179;-58
2023/10/14 06:35:34;;;;;;;5.70;2.10;;;;;;;20.70;64.76;99725.94;5054047;28;20213;-58
2023/10/14 06:38:00;;;;;;;3.57;1.30;;;;;;;20.71;65.23;99741.09;5064633;28;20854;-58
2023/10/14 06:40:35;;;;;;;5.43;1.43;;;;;;;20.70;65.20;99745.19;5058594;28;20457;-58
2023/10/14 06:43:07;;;;;;;6.17;1.60;;;;;;;20.72;65.33;99754.22;5045794;28;20642;-58
2023/10/14 06:45:33;;;;;;;8.47;2.20;;;;;;;20.84;66.93;99757.50;5052816;28;20445;-59
2023/10/14 06:47:59;;;;;;;7.43;2.27;;;;;;;21.00;67.13;99762.84;5049482;28;20487;-59
2023/10/14 06:50:24;;;;;;;11.77;1.90;;;;;;;21.08;67.17;99750.13;5057344;28;20517;-60
2023/10/14 06:52:53;;;;;;;8.83;2.47;;;;;;;21.11;66.93;99773.09;5051598;28;20827;-60
2023/10/14 06:55:22;;;;;;;5.13;1.63;;;;;;;21.12;66.75;99769.00;5050874;28;20203;-59
2023/10/14 06:57:53;;;;;;;6.20;1.67;;;;;;;21.14;66.64;99778.03;5060182;28;20429;-60
2023/10/14 07:00:25;;;;;;;3.73;1.43;;;;;;;21.12;66.62;99786.22;5051630;28;20433;-60
2023/10/14 07:02:54;;;;;;;6.33;1.40;;;;;;;21.13;66.85;99792.78;5060123;28;20437;-59
2023/10/14 07:05:21;;;;;;;5.63;1.63;;;;;;;21.16;66.61;99789.91;5056058;28;20417;-60
2023/10/14 07:07:52;;;;;;;3.80;1.30;;;;;;;21.19;66.84;99791.13;5065165;28;20441;-59
2023/10/14 07:10:18;;;;;;;5.60;1.20;;;;;;;21.23;66.67;99794.81;5067622;28;20482;-59
2023/10/14 07:12:43;;;;;;;4.67;1.37;;;;;;;21.20;66.42;99798.50;5066483;28;20837;-59
2023/10/14 07:15:12;;;;;;;3.93;1.60;;;;;;;21.24;65.93;99805.91;5065946;28;20231;-59
2023/10/14 07:17:42;;;;;;;5.10;1.30;;;;;;;21.22;66.10;99808.34;5063529;28;20199;-59
2023/10/14 07:20:11;;;;;;;5.80;1.50;;;;;;;21.25;65.85;99812.44;5060286;28;20462;-58
2023/10/14 07:22:42;;;;;;;4.03;1.20;;;;;;;21.25;65.97;99807.53;5051450;28;20426;-59
2023/10/14 07:25:09;;;;;;;5.50;1.30;;;;;;;21.23;66.21;99815.72;5056299;28;20464;-59
2023/10/14 07:27:36;;;;;;;6.10;1.77;;;;;;;21.27;66.18;99810.81;5070029;28;20440;-59
2023/10/14 07:30:36;;;;;;;13.70;1.90;;;;;;;21.39;67.43;99812.44;5070898;28;20406;-59
2023/10/14 07:32:55;;;;;;;5.30;1.50;;;;;;;21.32;66.63;99813.25;5053979;28;20422;-59
2023/10/14 07:35:21;;;;;;;5.37;1.30;;;;;;;21.34;66.33;99807.94;5050616;28;21012;-59
2023/10/14 07:37:54;;;;;;;6.60;1.70;;;;;;;21.43;66.78;99814.06;5061922;28;20187;-59
2023/10/14 07:40:23;;;;;;;10.57;2.00;;;;;;;21.35;66.16;99815.31;5070482;28;20213;-60
2023/10/14 07:42:59;;;;;;;6.47;1.30;;;;;;;21.41;66.54;99812.84;5051230;28;20410;-59
2023/10/14 07:45:28;;;;;;;6.77;1.47;;;;;;;21.48;67.00;99816.53;5065969;28;20988;-58
2023/10/14 07:47:57;;;;;;;4.83;1.50;;;;;;;21.51;66.67;99809.97;5056963;28;20455;-59
2023/10/14 07:50:23;;;;;;;4.20;1.37;;;;;;;21.38;66.13;99817.34;5056363;28;20441;-58
2023/10/14 07:52:49;;;;;;;5.53;1.27;;;;;;;21.42;67.00;99817.38;5055518;28;20509;-59
2023/10/14 07:55:15;;;;;;;8.00;1.57;;;;;;;21.44;66.51;99837.88;5060339;28;20564;-59
2023/10/14 07:57:42;;;;;;;6.70;1.23;;;;;;;21.50;66.95;99877.28;5052166;28;20563;-60
2023/10/14 08:00:14;;;;;;;5.10;1.70;;;;;;;21.48;66.32;99896.94;5066137;28;20183;-60
2023/10/14 08:02:43;;;;;;;4.83;1.30;;;;;;;21.50;66.64;99906.00;5051190;28;21117;-58
2023/10/14 08:05:09;;;;;;;4.40;1.10;;;;;;;21.48;66.67;99931.41;5063694;28;20426;-59
2023/10/14 08:07:40;;;;;;;5.10;1.40;;;;;;;21.43;66.82;99911.72;5055749;28;20445;-59
2023/10/14 08:10:18;;;;;;;4.73;1.00;;;;;;;21.41;67.78;99925.69;5051716;28;20476;-58
2023/10/14 08:12:46;;;;;;;3.90;1.50;;;;;;;21.44;67.30;99924.88;5055731;28;20940;-59
2023/10/14 08:15:17;;;;;;;2.77;0.80;;;;;;;21.48;67.27;99933.50;5051258;28;20561;-58
2023/10/14 08:17:43;;;;;;;3.30;0.90;;;;;;;21.52;67.51;99935.13;5052899;28;20520;-60
2023/10/14 08:20:12;;;;;;;3.80;1.33;;;;;;;21.47;66.95;99935.53;5054619;28;20482;-58
2023/10/14 08:22:41;;;;;;;4.63;0.93;;;;;;;21.33;67.37;99937.56;5064573;28;20290;-58
2023/10/14 08:25:10;;;;;;;2.60;0.80;;;;;;;21.26;67.58;99938.38;5063616;28;20452;-58
2023/10/14 08:27:36;;;;;;;1.70;0.70;;;;;;;21.23;68.48;99936.31;5054079;28;20445;-58
2023/10/14 08:30:10;;;;;;;2.10;0.70;;;;;;;21.19;68.19;99947.00;5055654;28;20490;-58
2023/10/14 08:32:39;;;;;;;5.23;0.63;;;;;;;21.17;68.29;99943.69;5052657;28;20189;-57
2023/10/14 08:35:15;;;;;;;1.30;0.50;;;;;;;21.10;68.52;99955.19;5059163;28;20477;-59
2023/10/14 08:37:47;;;;;;;9.80;0.90;;;;;;;21.12;69.32;99955.56;5058031;28;20430;-60
2023/10/14 08:40:16;;;;;;;3.70;0.60;;;;;;;21.18;69.05;99959.69;5060069;28;20810;-59
2023/10/14 08:43:08;;;;;;;2.80;0.77;;;;;;;21.21;68.66;99958.06;5059166;28;20457;-59
2023/10/14 08:45:38;;;;;;;3.50;0.70;;;;;;;21.21;68.05;99955.19;5061270;28;20901;-59
2023/10/14 08:48:05;;;;;;;3.00;0.73;;;;;;;21.16;68.29;99959.28;5056073;28;20803;-59
2023/10/14 08:50:33;;;;;;;1.70;0.60;;;;;;;21.15;68.27;99963.38;5058660;28;21054;-59
2023/10/14 08:53:01;;;;;;;3.93;0.70;;;;;;;21.11;68.01;99945.34;5058235;28;20434;-59
2023/10/14 08:55:28;;;;;;;1.87;0.60;;;;;;;21.08;68.48;99953.94;5063696;28;20477;-59
2023/10/14 08:58:01;;;;;;;2.57;0.70;;;;;;;21.04;68.97;99956.81;5058267;28;20546;-58
2023/10/14 09:00:29;;;;;;;2.23;0.60;;;;;;;21.00;68.77;99950.22;5052495;28;21051;-59
2023/10/14 09:02:54;;;;;;;1.30;0.50;;;;;;;20.97;69.19;99956.78;5067794;28;20425;-58
2023/10/14 09:05:20;;;;;;;2.30;0.60;;;;;;;20.97;69.06;99955.97;5068783;28;20966;-59
2023/10/14 09:07:48;;;;;;;1.60;0.60;;;;;;;20.94;68.96;99957.59;5052296;28;20194;-60
2023/10/14 09:10:16;;;;;;;1.30;0.60;;;;;;;20.86;69.92;99960.78;5059072;28;20532;-59
2023/10/14 09:12:53;;;;;;;1.70;0.67;;;;;;;20.89;69.60;99963.72;5060586;28;20973;-60
2023/10/14 09:15:21;;;;;;;2.97;0.87;;;;;;;20.93;69.14;99955.94;5057335;28;21055;-60
2023/10/14 09:17:46;;;;;;;3.20;1.03;;;;;;;20.95;69.43;99970.72;5048726;28;20915;-60
2023/10/14 09:20:38;;;;;;;1.50;0.70;;;;;;;20.89;70.13;99965.75;5054763;28;20543;-59
2023/10/14 09:23:17;;;;;;;3.00;0.60;;;;;;;20.84;70.00;99964.09;5039321;28;20191;-59
2023/10/14 09:25:58;;;;;;;1.70;0.60;;;;;;;20.86;69.89;99969.41;5059412;28;20932;-59
2023/10/14 09:28:25;;;;;;;1.33;0.60;;;;;;;20.83;69.90;99965.28;5048742;28;20441;-59
2023/10/14 09:30:52;;;;;;;2.07;0.70;;;;;;;20.80;70.11;99973.91;5055737;28;20510;-59
2023/10/14 09:33:28;;;;;;;1.40;0.50;;;;;;;20.83;69.92;99978.84;5055885;28;20472;-60
2023/10/14 09:35:59;;;;;;;2.90;0.70;;;;;;;20.84;69.74;99978.44;5057669;28;20474;-58
2023/10/14 09:38:26;;;;;;;3.73;1.13;;;;;;;20.88;69.74;99979.25;5050199;28;20536;-59
2023/10/14 09:40:57;;;;;;;2.63;0.70;;;;;;;20.91;69.85;99994.88;5059734;28;20430;-59
2023/10/14 09:43:23;;;;;;;1.53;0.53;;;;;;;20.85;70.15;99991.56;5048145;28;20820;-59
2023/10/14 09:45:51;;;;;;;4.70;0.60;;;;;;;20.79;71.12;99993.19;5067983;28;20467;-59
2023/10/14 09:48:16;;;;;;;2.23;0.70;;;;;;;20.86;70.24;99995.22;5058096;28;20448;-59
2023/10/14 09:50:43;;;;;;;1.93;0.70;;;;;;;20.86;70.07;99993.19;5050424;28;20916;-60
2023/10/14 09:53:12;;;;;;;5.73;0.70;;;;;;;20.86;70.18;99998.94;5052156;28;20275;-59
2023/10/14 09:55:38;;;;;;;3.50;0.80;;;;;;;20.87;70.53;100003.44;5047915;28;20504;-60
2023/10/14 09:58:04;;;;;;;1.40;0.50;;;;;;;21.00;70.25;100018.28;5054411;28;20949;-59
2023/10/14 10:00:33;;;;;;;5.83;0.60;;;;;;;21.07;70.18;100030.59;5062962;28;20236;-60
2023/10/14 10:02:59;;;;;;;4.10;0.70;;;;;;;21.10;69.88;100024.06;5063438;28;20422;-59
2023/10/14 10:05:28;;;;;;;1.93;0.60;;;;;;;21.12;70.01;100035.97;5061303;28;20415;-59
2023/10/14 10:08:26;;;;;;;2.17;0.63;;;;;;;21.13;70.16;100039.66;5054606;28;20202;-59
2023/10/14 10:10:52;;;;;;;2.93;0.83;;;;;;;21.13;69.82;100043.34;5059571;28;20490;-58
2023/10/14 10:13:17;;;;;;;8.53;0.80;;;;;;;21.14;69.78;100045.00;5048128;28;21235;-59
2023/10/14 10:15:45;;;;;;;3.77;0.70;;;;;;;21.13;69.47;100043.34;5050278;28;20215;-59
2023/10/14 10:18:16;;;;;;;3.20;0.60;;;;;;;21.16;69.27;100048.28;5052065;28;20194;-60
2023/10/14 10:20:55;;;;;;;2.03;0.77;;;;;;;21.20;69.94;100034.78;5057078;28;20474;-60
2023/10/14 10:23:22;;;;;;;3.07;0.90;;;;;;;21.22;69.43;100043.78;5059051;28;20483;-59
2023/10/14 10:25:48;;;;;;;4.57;0.90;;;;;;;21.22;69.14;100043.78;5047313;28;20437;-59
2023/10/14 10:28:23;;;;;;;1.80;0.70;;;;;;;21.25;69.30;100053.63;5049763;28;20446;-59
2023/10/14 10:30:49;;;;;;;1.43;0.50;;;;;;;21.23;69.48;100053.22;5060115;28;20515;-59
2023/10/14 10:33:14;;;;;;;3.10;0.80;;;;;;;21.25;68.77;100047.91;5056213;28;20448;-59
2023/10/14 10:35:59;;;;;;;2.13;0.80;;;;;;;21.29;69.12;100049.56;5057889;28;20210;-59
2023/10/14 10:38:27;;;;;;;4.23;0.70;;;;;;;21.30;69.08;100045.47;5052534;28;20191;-59
2023/10/14 10:41:23;;;;;;;1.40;0.60;;;;;;;21.28;69.27;100041.34;5045730;28;20529;-59
2023/10/14 10:43:49;;;;;;;2.57;0.60;;;;;;;21.27;68.98;100034.78;5047252;28;20414;-60
2023/10/14 10:46:38;;;;;;;1.60;0.60;;;;;;;21.27;68.62;100046.25;5057715;28;20442;-60
2023/10/14 10:49:07;;;;;;;2.07;0.60;;;;;;;21.28;68.61;100050.78;5070968;28;20191;-60
2023/10/14 10:51:33;;;;;;;2.63;0.60;;;;;;;21.27;68.80;100057.75;5047214;28;20457;-59
2023/10/14 10:53:59;;;;;;;2.40;0.60;;;;;;;21.29;68.83;100058.19;5052064;28;20845;-59
2023/10/14 10:56:34;;;;;;;1.60;0.60;;;;;;;21.29;68.56;100063.94;5055953;28;20479;-59
2023/10/14 10:59:04;;;;;;;4.10;0.70;;;;;;;21.29;68.27;100074.56;5048012;28;20179;-59
2023/10/14 11:01:32;;;;;;;1.60;0.63;;;;;;;21.28;68.30;100079.47;5046962;28;20434;-60
2023/10/14 11:03:59;;;;;;;1.60;0.60;;;;;;;21.28;68.86;100090.97;5056166;28;20463;-59
2023/10/14 11:06:25;;;;;;;3.40;0.60;;;;;;;21.27;68.46;100097.94;5062361;28;20484;-59
2023/10/14 11:08:51;;;;;;;1.50;0.60;;;;;;;21.29;68.26;100091.81;5058919;28;21426;-59
2023/10/14 11:11:17;;;;;;;1.70;0.60;;;;;;;21.32;68.27;100096.75;5028828;28;20468;-60
2023/10/14 11:13:43;;;;;;;1.30;0.50;;;;;;;21.31;68.40;100098.78;5048729;28;20461;-60
2023/10/14 11:16:18;;;;;;;2.63;0.80;;;;;;;21.34;68.62;100098.00;5055762;28;20217;-59
2023/10/14 11:18:48;;;;;;;4.10;0.80;;;;;;;21.24;68.06;100104.53;5049153;28;20202;-59
2023/10/14 11:21:14;;;;;;;2.73;0.83;;;;;;;21.11;67.12;100096.66;5057314;28;20471;-60
2023/10/14 11:23:41;;;;;;;2.07;0.70;;;;;;;21.01;67.14;100106.88;5053880;28;21023;-59
2023/10/14 11:26:15;;;;;;;5.10;1.10;;;;;;;20.92;66.65;100103.53;5062095;28;20506;-59
2023/10/14 11:28:45;;;;;;;1.80;0.70;;;;;;;20.87;66.01;100101.00;5055905;28;20438;-59
2023/10/14 11:31:11;;;;;;;3.67;0.87;;;;;;;20.80;65.84;100100.97;5050348;28;20430;-59
2023/10/14 11:33:36;;;;;;;2.83;1.10;;;;;;;20.72;65.62;100098.47;5058129;28;21082;-59
2023/10/14 11:36:03;;;;;;;34.50;2.10;;;;;;;20.72;66.05;100107.88;5055627;28;20476;-61
2023/10/14 11:38:29;;;;;;;3.80;0.93;;;;;;;20.73;65.55;100106.66;5055672;28;20191;-59
2023/10/14 11:40:55;;;;;;;6.97;1.07;;;;;;;20.72;65.31;100105.03;5048031;28;20438;-59
2023/10/14 11:43:21;;;;;;;2.80;1.13;;;;;;;20.74;64.97;100104.63;5052476;28;20429;-60
2023/10/14 11:45:46;;;;;;;5.60;1.50;;;;;;;20.71;64.75;100112.00;5056782;28;20194;-61
2023/10/14 11:48:30;;;;;;;4.23;1.23;;;;;;;20.72;64.44;100110.75;5059259;28;20197;-60
2023/10/14 11:51:02;;;;;;;3.40;1.13;;;;;;;20.74;64.70;100113.22;5051607;28;20192;-59
2023/10/14 11:53:28;;;;;;;4.50;1.70;;;;;;;20.71;64.51;100120.59;5049265;28;20449;-59
2023/10/14 11:56:00;;;;;;;6.33;1.50;;;;;;;20.69;63.88;100125.09;5061728;28;20460;-59
2023/10/14 11:58:27;;;;;;;9.30;1.30;;;;;;;20.64;63.94;100126.28;5052640;28;20923;-59
2023/10/14 12:00:52;;;;;;;3.70;1.43;;;;;;;20.72;64.04;100127.97;5056244;28;20430;-59
2023/10/14 12:03:17;;;;;;;5.73;1.97;;;;;;;20.79;63.68;100116.56;5055296;28;20453;-59
2023/10/14 12:05:43;;;;;;;5.10;1.37;;;;;;;20.83;64.09;100130.91;5066047;28;20232;-59
2023/10/14 12:08:08;;;;;;;5.63;1.67;;;;;;;20.86;63.75;100136.69;5060629;28;20266;-60
2023/10/14 12:10:34;;;;;;;4.00;1.40;;;;;;;20.87;63.49;100140.38;5049957;28;20190;-58
2023/10/14 12:13:00;;;;;;;6.50;1.40;;;;;;;20.87;63.50;100138.31;5056696;28;20275;-59
2023/10/14 12:15:27;;;;;;;9.70;1.47;;;;;;;20.88;63.28;100139.16;5061028;28;20473;-59